Time;durP1;ratioP1;P1;durP2;ratioP2;P2;SDS_P1;SDS_P2;PMS_P1;PMS_P2;Temp;Humidity;BMP_temperature;BMP_pressure;BME280_temperature;BME280_humidity;BME280_pressure;Samples;Min_cycle;Max_cycle;Signal;HPM_P1;HPM_P2
2022/03/04 00:01:53;;;;;;;3.13;2.33;;;;;;;21.83;nan;98831.16;5113179;28;20048;-57
2022/03/04 00:04:18;;;;;;;3.17;2.38;;;;;;;21.82;nan;98829.56;5113265;28;20036;-57
2022/03/04 00:06:44;;;;;;;3.15;2.15;;;;;;;21.84;nan;98829.97;5112740;28;20040;-57
2022/03/04 00:09:09;;;;;;;3.38;2.35;;;;;;;21.83;nan;98825.59;5113152;28;20414;-58
2022/03/04 00:11:35;;;;;;;3.00;2.22;;;;;;;21.84;nan;98829.16;5113292;28;20036;-57
2022/03/04 00:14:00;;;;;;;3.45;2.45;;;;;;;21.80;nan;98820.81;5112860;28;20047;-57
2022/03/04 00:16:26;;;;;;;3.40;2.50;;;;;;;21.85;nan;98834.34;5112916;28;20120;-58
2022/03/04 00:19:06;;;;;;;3.10;2.40;;;;;;;21.81;nan;98819.63;5113270;28;20046;-57
2022/03/04 00:21:47;;;;;;;3.58;2.55;;;;;;;21.84;nan;98831.94;5112921;28;20507;-57
2022/03/04 00:24:13;;;;;;;3.25;2.35;;;;;;;21.84;nan;98832.75;5112858;28;20039;-57
2022/03/04 00:26:39;;;;;;;2.97;2.15;;;;;;;21.84;nan;98843.88;5111984;28;20052;-57
2022/03/04 00:29:06;;;;;;;3.50;2.50;;;;;;;21.83;nan;98831.16;5112936;28;20074;-57
2022/03/04 00:31:33;;;;;;;3.97;2.60;;;;;;;21.84;nan;98838.31;5112793;28;20051;-57
2022/03/04 00:33:59;;;;;;;3.05;2.13;;;;;;;21.84;nan;98831.94;5112598;28;20469;-57
2022/03/04 00:36:26;;;;;;;3.08;2.22;;;;;;;21.85;nan;98828.75;5112127;28;20122;-58
2022/03/04 00:38:53;;;;;;;3.30;2.42;;;;;;;21.83;nan;98831.16;5112593;28;20051;-57
2022/03/04 00:41:20;;;;;;;3.40;2.35;;;;;;;21.84;nan;98832.75;5112536;28;20075;-57
2022/03/04 00:43:46;;;;;;;3.15;2.30;;;;;;;21.83;nan;98836.72;5112671;28;20085;-57
2022/03/04 00:46:13;;;;;;;3.47;2.65;;;;;;;21.84;nan;98823.59;5111970;28;20089;-57
2022/03/04 00:48:39;;;;;;;3.13;2.30;;;;;;;21.85;nan;98822.41;5112359;28;20127;-57
2022/03/04 00:51:04;;;;;;;3.50;2.45;;;;;;;21.84;nan;98826.38;5112533;28;20139;-57
2022/03/04 00:53:30;;;;;;;3.30;2.33;;;;;;;21.82;nan;98821.22;5112253;28;20039;-57
2022/03/04 00:55:56;;;;;;;3.63;2.53;;;;;;;21.80;nan;98825.59;5112409;28;20362;-57
2022/03/04 00:58:22;;;;;;;2.92;2.30;;;;;;;21.71;nan;98806.47;5112381;28;20100;-57
2022/03/04 01:00:47;;;;;;;3.50;2.60;;;;;;;21.83;nan;98825.59;5112223;28;20040;-57
2022/03/04 01:03:13;;;;;;;3.97;2.50;;;;;;;21.83;nan;98820.03;5112117;28;20096;-57
2022/03/04 01:05:38;;;;;;;3.60;2.70;;;;;;;21.84;nan;98818.03;5111830;28;20048;-57
2022/03/04 01:08:04;;;;;;;3.38;2.60;;;;;;;21.82;nan;98810.06;5111656;28;20036;-57
2022/03/04 01:10:30;;;;;;;3.85;2.58;;;;;;;21.82;nan;98803.72;5112222;28;20407;-57
2022/03/04 01:12:55;;;;;;;3.33;2.25;;;;;;;21.82;nan;98806.50;5111623;28;20044;-57
2022/03/04 01:15:21;;;;;;;3.97;2.80;;;;;;;21.81;nan;98800.13;5111707;28;20051;-57
2022/03/04 01:17:46;;;;;;;3.70;2.65;;;;;;;21.80;nan;98798.56;5112043;28;20039;-57
2022/03/04 01:20:12;;;;;;;4.18;3.22;;;;;;;21.81;nan;98794.56;5111851;28;20053;-57
2022/03/04 01:22:37;;;;;;;3.28;2.40;;;;;;;21.80;nan;98798.56;5112178;28;20059;-60
2022/03/04 01:25:04;;;;;;;3.40;2.60;;;;;;;21.82;nan;98807.28;5111874;28;20449;-60
2022/03/04 01:27:29;;;;;;;3.47;2.50;;;;;;;21.77;nan;98799.31;5111098;28;20036;-60
2022/03/04 01:29:55;;;;;;;3.42;2.30;;;;;;;21.82;nan;98810.06;5111755;28;20061;-60
2022/03/04 01:32:20;;;;;;;3.35;2.55;;;;;;;21.81;nan;98811.28;5111655;28;20058;-60
2022/03/04 01:34:46;;;;;;;3.55;2.55;;;;;;;21.72;nan;98794.16;5111742;28;20039;-60
2022/03/04 01:37:11;;;;;;;3.17;2.50;;;;;;;21.82;nan;98804.50;5118797;28;20047;-60
2022/03/04 01:39:37;;;;;;;3.15;2.25;;;;;;;21.82;nan;98804.50;5132164;28;20039;-60
2022/03/04 01:42:03;;;;;;;3.63;2.63;;;;;;;21.83;nan;98802.53;5132208;28;20443;-60
2022/03/04 01:44:29;;;;;;;3.47;2.55;;;;;;;21.83;nan;98803.31;5131726;28;20050;-60
2022/03/04 01:46:54;;;;;;;3.05;2.33;;;;;;;21.80;nan;98804.13;5131585;28;20043;-60
2022/03/04 01:49:20;;;;;;;4.30;2.90;;;;;;;21.81;nan;98797.34;5131851;28;20330;-61
2022/03/04 01:51:46;;;;;;;3.50;2.40;;;;;;;21.83;nan;98802.53;5131806;28;20050;-60
2022/03/04 01:54:11;;;;;;;3.72;2.65;;;;;;;21.82;nan;98801.72;5131965;28;20046;-60
2022/03/04 01:56:37;;;;;;;3.90;2.70;;;;;;;21.82;nan;98804.50;5132098;28;20043;-60
2022/03/04 01:59:02;;;;;;;3.30;2.28;;;;;;;21.81;nan;98805.72;5131901;28;20047;-60
2022/03/04 02:01:29;;;;;;;3.70;2.50;;;;;;;21.82;nan;98800.94;5131734;28;20054;-60
2022/03/04 02:03:54;;;;;;;3.53;2.50;;;;;;;21.80;nan;98801.34;5131855;28;20051;-60
2022/03/04 02:06:20;;;;;;;3.70;2.80;;;;;;;21.81;nan;98805.72;5131530;28;20126;-61
2022/03/04 02:08:46;;;;;;;3.90;2.72;;;;;;;21.79;nan;98796.13;5131253;28;20100;-60
2022/03/04 02:11:11;;;;;;;3.85;2.85;;;;;;;21.75;nan;98784.22;5131662;28;20093;-60
2022/03/04 02:13:38;;;;;;;3.78;2.50;;;;;;;21.79;nan;98788.63;5131141;27;20110;-60
2022/03/04 02:16:10;;;;;;;3.70;2.75;;;;;;;21.79;nan;98791.41;5131407;28;20040;-60
2022/03/04 02:18:38;;;;;;;3.38;2.60;;;;;;;21.79;nan;98785.81;5131659;28;20035;-60
2022/03/04 02:21:07;;;;;;;3.92;2.85;;;;;;;21.80;nan;98792.19;5131394;28;20073;-60
2022/03/04 02:23:32;;;;;;;4.13;2.92;;;;;;;21.78;nan;98784.22;5131387;28;20074;-60
2022/03/04 02:25:59;;;;;;;4.03;2.75;;;;;;;21.80;nan;98787.41;5131317;28;20126;-60
2022/03/04 02:28:24;;;;;;;3.88;2.47;;;;;;;21.78;nan;98789.78;5130823;28;20471;-60
2022/03/04 02:30:50;;;;;;;4.35;2.90;;;;;;;21.78;nan;98786.19;5131161;28;20506;-60
2022/03/04 02:33:15;;;;;;;3.35;2.17;;;;;;;21.79;nan;98793.34;5131073;28;20078;-60
2022/03/04 02:35:42;;;;;;;3.10;2.38;;;;;;;21.78;nan;98802.91;5131106;28;20473;-60
2022/03/04 02:38:07;;;;;;;3.20;2.42;;;;;;;21.77;nan;98785.41;5131148;28;20100;-60
2022/03/04 02:40:33;;;;;;;3.30;2.40;;;;;;;21.76;nan;98792.16;5130930;28;20043;-60
2022/03/04 02:42:58;;;;;;;3.13;2.22;;;;;;;21.77;nan;98787.41;5131044;28;20039;-60
2022/03/04 02:45:25;;;;;;;3.78;2.67;;;;;;;21.77;nan;98788.19;5130961;28;20073;-60
2022/03/04 02:47:51;;;;;;;3.72;2.67;;;;;;;21.78;nan;98795.34;5130514;28;20433;-60
2022/03/04 02:50:17;;;;;;;2.95;2.20;;;;;;;21.78;nan;98789.78;5130464;28;20463;-60
2022/03/04 02:52:43;;;;;;;3.75;2.60;;;;;;;21.78;nan;98792.56;5131117;28;20102;-60
2022/03/04 02:55:11;;;;;;;4.32;2.80;;;;;;;21.80;nan;98792.97;5130849;28;20100;-60
2022/03/04 02:57:38;;;;;;;3.58;2.28;;;;;;;21.79;nan;98787.78;5130875;28;20489;-60
2022/03/04 03:00:04;;;;;;;3.80;2.75;;;;;;;21.78;nan;98792.56;5130336;28;20043;-60
2022/03/04 03:02:30;;;;;;;4.00;2.72;;;;;;;21.78;nan;98792.56;5129378;28;20039;-60
2022/03/04 03:04:55;;;;;;;3.03;2.42;;;;;;;21.75;nan;98790.59;5130673;28;20046;-60
2022/03/04 03:07:21;;;;;;;4.20;2.70;;;;;;;21.76;nan;98792.16;5130448;28;20047;-60
2022/03/04 03:09:46;;;;;;;3.25;2.25;;;;;;;21.78;nan;98795.34;5130239;28;20047;-60
2022/03/04 03:12:11;;;;;;;3.08;2.33;;;;;;;21.78;nan;98795.34;5130615;28;20058;-60
2022/03/04 03:14:37;;;;;;;3.55;2.58;;;;;;;21.75;nan;98793.38;5109478;28;20523;-60
2022/03/04 03:17:03;;;;;;;3.47;2.60;;;;;;;21.77;nan;98795.75;5109995;28;20507;-60
2022/03/04 03:19:28;;;;;;;3.97;2.40;;;;;;;21.78;nan;98802.91;5130773;28;20620;-60
2022/03/04 03:21:53;;;;;;;3.50;2.58;;;;;;;21.78;nan;98795.34;5130461;28;20134;-60
2022/03/04 03:24:19;;;;;;;3.10;2.30;;;;;;;21.77;nan;98799.31;5130655;27;20083;-59
2022/03/04 03:26:44;;;;;;;3.80;2.63;;;;;;;21.77;nan;98799.31;5129368;28;20497;-59
2022/03/04 03:29:10;;;;;;;3.42;2.17;;;;;;;21.78;nan;98798.13;5129913;28;20032;-60
2022/03/04 03:31:35;;;;;;;3.80;2.75;;;;;;;21.74;nan;98789.00;5130447;28;20126;-60
2022/03/04 03:34:01;;;;;;;3.38;2.50;;;;;;;21.78;nan;98800.13;5130340;28;20083;-61
2022/03/04 03:36:26;;;;;;;3.53;2.35;;;;;;;21.77;nan;98799.31;5130189;28;20043;-60
2022/03/04 03:38:51;;;;;;;3.15;2.28;;;;;;;21.77;nan;98799.31;5130370;28;20043;-60
2022/03/04 03:41:17;;;;;;;3.28;2.22;;;;;;;21.74;nan;98799.34;5130479;28;20191;-60
2022/03/04 03:43:44;;;;;;;3.90;2.40;;;;;;;21.76;nan;98803.31;5130170;28;20047;-60
2022/03/04 03:46:10;;;;;;;3.10;2.50;;;;;;;21.77;nan;98816.03;5110911;28;20407;-60
2022/03/04 03:48:39;;;;;;;3.53;2.70;;;;;;;21.77;nan;98810.47;5129974;28;20482;-60
2022/03/04 03:51:04;;;;;;;3.88;2.38;;;;;;;21.75;nan;98810.06;5130108;28;20506;-60
2022/03/04 03:53:30;;;;;;;3.45;2.50;;;;;;;21.77;nan;98810.47;5130087;28;20045;-60
2022/03/04 03:55:55;;;;;;;3.08;2.25;;;;;;;21.78;nan;98814.84;5129978;28;20039;-60
2022/03/04 03:58:20;;;;;;;3.13;2.53;;;;;;;21.77;nan;98810.47;5130023;28;20043;-60
2022/03/04 04:00:46;;;;;;;3.65;2.47;;;;;;;21.76;nan;98808.09;5130200;28;20133;-60
2022/03/04 04:03:11;;;;;;;3.92;2.75;;;;;;;21.73;nan;98808.88;5129917;28;20052;-60
2022/03/04 04:05:37;;;;;;;4.72;2.50;;;;;;;21.75;nan;98807.28;5130052;28;20304;-60
2022/03/04 04:08:02;;;;;;;3.35;2.50;;;;;;;21.76;nan;98808.88;5129550;28;20130;-60
2022/03/04 04:10:28;;;;;;;3.50;2.55;;;;;;;21.76;nan;98817.22;5129680;28;20125;-60
2022/03/04 04:12:53;;;;;;;3.60;2.40;;;;;;;21.77;nan;98809.66;5130081;28;20433;-60
2022/03/04 04:15:19;;;;;;;4.47;2.80;;;;;;;21.76;nan;98810.88;5129699;28;20035;-60
2022/03/04 04:17:44;;;;;;;3.70;2.55;;;;;;;21.74;nan;98810.47;5129861;28;20078;-60
2022/03/04 04:20:10;;;;;;;3.15;2.47;;;;;;;21.76;nan;98808.09;5130004;28;20031;-60
2022/03/04 04:22:35;;;;;;;3.10;2.40;;;;;;;21.76;nan;98808.88;5129855;28;20047;-60
2022/03/04 04:25:01;;;;;;;3.67;2.30;;;;;;;21.76;nan;98808.09;5129691;28;20569;-60
2022/03/04 04:27:26;;;;;;;3.30;2.40;;;;;;;21.75;nan;98798.94;5129841;28;20088;-60
2022/03/04 04:29:52;;;;;;;3.25;2.30;;;;;;;21.74;nan;98805.69;5129234;28;20176;-60
2022/03/04 04:32:17;;;;;;;3.30;2.30;;;;;;;21.75;nan;98807.28;5129396;28;20039;-60
2022/03/04 04:34:42;;;;;;;3.40;2.50;;;;;;;21.76;nan;98802.50;5129612;28;20035;-60
2022/03/04 04:37:08;;;;;;;3.30;2.70;;;;;;;21.75;nan;98807.28;5131340;27;20066;-60
2022/03/04 04:39:33;;;;;;;3.60;2.75;;;;;;;21.75;nan;98804.50;5133176;28;20052;-60
2022/03/04 04:41:59;;;;;;;3.58;2.92;;;;;;;21.74;nan;98808.47;5132940;28;20529;-60
2022/03/04 04:44:24;;;;;;;3.47;2.35;;;;;;;21.74;nan;98807.69;5132976;28;20047;-60
2022/03/04 04:46:50;;;;;;;3.65;2.65;;;;;;;21.74;nan;98811.25;5133150;28;20057;-60
2022/03/04 04:49:15;;;;;;;3.53;2.50;;;;;;;21.74;nan;98805.69;5132611;28;20049;-60
2022/03/04 04:51:41;;;;;;;3.20;2.20;;;;;;;21.73;nan;98809.69;5133014;28;20040;-60
2022/03/04 04:54:06;;;;;;;3.67;2.70;;;;;;;21.74;nan;98805.69;5132878;28;20415;-60
2022/03/04 04:56:32;;;;;;;3.28;2.38;;;;;;;21.72;nan;98816.44;5132558;28;20129;-60
2022/03/04 04:58:57;;;;;;;3.50;2.50;;;;;;;21.73;nan;98818.03;5133056;28;20759;-60
2022/03/04 05:01:22;;;;;;;3.40;2.50;;;;;;;21.73;nan;98823.59;5132611;28;20047;-60
2022/03/04 05:03:48;;;;;;;3.72;2.70;;;;;;;21.73;nan;98820.81;5132707;28;20047;-60
2022/03/04 05:06:13;;;;;;;3.33;2.40;;;;;;;21.73;nan;98826.38;5132363;28;20139;-60
2022/03/04 05:08:39;;;;;;;3.40;2.40;;;;;;;21.74;nan;98821.59;5132377;28;20139;-60
2022/03/04 05:11:04;;;;;;;3.05;2.40;;;;;;;21.73;nan;98823.59;5132596;28;20122;-60
2022/03/04 05:13:29;;;;;;;3.08;2.30;;;;;;;21.71;nan;98820.38;5132580;28;20491;-60
2022/03/04 05:15:55;;;;;;;3.58;2.53;;;;;;;21.72;nan;98822.00;5132449;28;20078;-60
2022/03/04 05:18:20;;;;;;;3.35;2.58;;;;;;;21.73;nan;98815.25;5132486;28;20388;-60
2022/03/04 05:20:46;;;;;;;3.50;2.33;;;;;;;21.73;nan;98820.03;5132505;28;20567;-60
2022/03/04 05:23:58;;;;;;;3.10;2.22;;;;;;;21.71;nan;98820.38;5132351;28;20112;-60
2022/03/04 05:25:57;;;;;;;3.75;2.55;;;;;;;21.73;nan;98839.50;5132195;28;20061;-60
2022/03/04 05:28:22;;;;;;;3.25;2.42;;;;;;;21.73;nan;98825.59;5132106;28;20124;-60
2022/03/04 05:30:48;;;;;;;3.45;2.38;;;;;;;21.71;nan;98823.16;5131949;28;20403;-60
2022/03/04 05:33:13;;;;;;;3.70;2.70;;;;;;;21.71;nan;98829.53;5132080;28;20121;-60
2022/03/04 05:35:38;;;;;;;3.38;2.45;;;;;;;21.71;nan;98837.09;5131980;28;20047;-60
2022/03/04 05:38:04;;;;;;;3.53;2.53;;;;;;;21.69;nan;98829.13;5132265;28;20043;-60
2022/03/04 05:40:29;;;;;;;3.35;2.50;;;;;;;21.70;nan;98838.28;5132154;28;20039;-60
2022/03/04 05:42:55;;;;;;;3.45;2.50;;;;;;;21.71;nan;98837.09;5131946;28;20281;-60
2022/03/04 05:45:20;;;;;;;3.28;2.50;;;;;;;21.72;nan;98835.94;5131795;28;20050;-60
2022/03/04 05:47:45;;;;;;;3.45;2.50;;;;;;;21.70;nan;98832.72;5131531;27;20031;-60
2022/03/04 05:50:11;;;;;;;3.42;2.58;;;;;;;21.69;nan;98842.25;5130843;28;20042;-60
2022/03/04 05:52:36;;;;;;;3.33;2.58;;;;;;;21.68;nan;98823.97;5131826;28;20580;-60
2022/03/04 05:55:02;;;;;;;3.35;2.38;;;;;;;21.68;nan;98840.69;5131862;28;20047;-60
2022/03/04 05:57:27;;;;;;;3.67;2.47;;;;;;;21.70;nan;98835.50;5131954;28;20452;-60
2022/03/04 05:59:53;;;;;;;3.90;2.70;;;;;;;21.70;nan;98839.09;5132082;28;20051;-60
2022/03/04 06:02:18;;;;;;;3.80;2.70;;;;;;;21.68;nan;98841.47;5131679;28;20075;-60
2022/03/04 06:04:43;;;;;;;3.22;2.30;;;;;;;21.71;nan;98845.44;5131400;28;20098;-60
2022/03/04 06:07:09;;;;;;;3.65;2.67;;;;;;;21.69;nan;98836.69;5131873;28;20075;-60
2022/03/04 06:09:34;;;;;;;3.08;2.05;;;;;;;21.71;nan;98845.44;5131100;28;20391;-60
2022/03/04 06:12:00;;;;;;;3.70;2.55;;;;;;;21.72;nan;98855.41;5131514;28;20053;-60
2022/03/04 06:14:25;;;;;;;3.38;2.30;;;;;;;21.73;nan;98857.00;5131840;28;20044;-60
2022/03/04 06:16:50;;;;;;;3.90;2.70;;;;;;;21.70;nan;98852.19;5131273;28;20100;-60
2022/03/04 06:19:16;;;;;;;3.10;2.40;;;;;;;21.72;nan;98852.63;5131667;28;20134;-60
2022/03/04 06:21:41;;;;;;;3.75;2.60;;;;;;;21.73;nan;98845.06;5131791;28;20039;-60
2022/03/04 06:24:07;;;;;;;3.85;2.33;;;;;;;21.73;nan;98859.00;5131570;28;20035;-60
2022/03/04 06:26:32;;;;;;;3.45;2.50;;;;;;;21.74;nan;98860.56;5131362;28;20084;-61
2022/03/04 06:28:59;;;;;;;3.85;2.70;;;;;;;21.73;nan;98847.84;5112943;28;20050;-67
2022/03/04 06:31:24;;;;;;;3.25;2.30;;;;;;;21.72;nan;98858.19;5131435;28;20039;-61
2022/03/04 06:33:50;;;;;;;3.78;2.40;;;;;;;21.73;nan;98859.78;5131384;28;20035;-60
2022/03/04 06:36:15;;;;;;;3.53;2.60;;;;;;;21.74;nan;98858.59;5131208;28;20112;-60
2022/03/04 06:38:44;;;;;;;3.80;2.40;;;;;;;21.75;nan;98865.75;5131472;28;20043;-60
2022/03/04 06:41:11;;;;;;;5.13;2.92;;;;;;;21.77;nan;98866.13;5131761;28;20047;-60
2022/03/04 06:43:38;;;;;;;3.92;2.67;;;;;;;21.77;nan;98870.91;5131167;28;20411;-60
2022/03/04 06:46:04;;;;;;;3.30;2.30;;;;;;;21.76;nan;98870.13;5131093;28;20051;-60
2022/03/04 06:48:30;;;;;;;3.42;2.40;;;;;;;21.75;nan;98868.53;5131381;28;20039;-60
2022/03/04 06:50:56;;;;;;;4.75;2.60;;;;;;;21.74;nan;98871.72;5128706;28;20066;-60
2022/03/04 06:53:21;;;;;;;3.55;2.55;;;;;;;21.76;nan;98875.69;5130930;28;20083;-60
2022/03/04 06:55:48;;;;;;;4.03;2.85;;;;;;;21.75;nan;98876.88;5130974;28;20109;-60
2022/03/04 06:58:14;;;;;;;5.13;2.70;;;;;;;21.76;nan;98872.91;5130960;28;20124;-60
2022/03/04 07:00:41;;;;;;;2.95;2.10;;;;;;;21.78;nan;98878.06;5130818;27;20117;-59
2022/03/04 07:03:07;;;;;;;3.65;2.47;;;;;;;21.75;nan;98879.66;5130999;28;20035;-60
2022/03/04 07:05:33;;;;;;;3.70;2.65;;;;;;;21.77;nan;98879.25;5130919;28;20043;-60
2022/03/04 07:07:58;;;;;;;3.60;2.60;;;;;;;21.77;nan;98880.06;5128859;28;20092;-60
2022/03/04 07:10:24;;;;;;;5.40;2.65;;;;;;;21.79;nan;98879.66;5130422;28;20050;-60
2022/03/04 07:12:50;;;;;;;3.80;2.80;;;;;;;21.78;nan;98891.97;5130720;28;20388;-60
2022/03/04 07:15:17;;;;;;;4.13;3.05;;;;;;;21.77;nan;98882.84;5130865;28;20092;-60
2022/03/04 07:17:43;;;;;;;3.28;2.58;;;;;;;21.78;nan;98890.00;5130824;28;20039;-61
2022/03/04 07:20:09;;;;;;;4.07;2.90;;;;;;;21.80;nan;98889.63;5130225;28;20108;-60
2022/03/04 07:22:38;;;;;;;3.53;2.67;;;;;;;21.79;nan;98896.34;5130733;28;20043;-60
2022/03/04 07:25:05;;;;;;;3.47;2.80;;;;;;;21.79;nan;98899.13;5130417;28;20599;-62
2022/03/04 07:27:33;;;;;;;3.47;2.63;;;;;;;21.78;nan;98898.34;5130616;28;20079;-60
2022/03/04 07:29:58;;;;;;;3.92;2.72;;;;;;;21.79;nan;98902.75;5130369;28;20040;-60
2022/03/04 07:32:24;;;;;;;3.80;3.00;;;;;;;21.79;nan;98908.31;5111027;28;20498;-60
2022/03/04 07:34:49;;;;;;;4.13;3.00;;;;;;;21.79;nan;98901.94;5130926;28;20040;-60
2022/03/04 07:37:14;;;;;;;3.88;2.80;;;;;;;21.81;nan;98905.94;5130078;28;20256;-60
2022/03/04 07:39:40;;;;;;;3.80;2.90;;;;;;;21.80;nan;98903.53;5130383;28;20563;-59
2022/03/04 07:42:05;;;;;;;3.53;2.67;;;;;;;21.80;nan;98906.31;5130310;28;20063;-60
2022/03/04 07:44:31;;;;;;;3.85;2.88;;;;;;;21.79;nan;98913.88;5129944;28;20050;-59
2022/03/04 07:46:56;;;;;;;4.13;2.83;;;;;;;21.80;nan;98915.47;5129760;27;20047;-60
2022/03/04 07:49:22;;;;;;;4.03;3.05;;;;;;;21.80;nan;98911.91;5132341;27;20057;-60
2022/03/04 07:51:48;;;;;;;3.55;2.75;;;;;;;21.82;nan;98920.66;5134573;27;20384;-60
2022/03/04 07:54:14;;;;;;;3.78;2.92;;;;;;;21.80;nan;98914.69;5132145;27;20066;-61
2022/03/04 07:56:39;;;;;;;4.03;3.15;;;;;;;21.82;nan;98921.44;5121658;27;20045;-60
2022/03/04 07:59:05;;;;;;;3.58;2.63;;;;;;;21.79;nan;98913.06;5122371;27;20305;-60
2022/03/04 08:01:31;;;;;;;4.90;2.95;;;;;;;21.84;nan;98919.03;5122066;27;20388;-59
2022/03/04 08:03:56;;;;;;;3.88;3.00;;;;;;;21.86;nan;98925.03;5125379;27;20039;-59
2022/03/04 08:06:21;;;;;;;4.05;3.22;;;;;;;21.85;nan;98929.00;5124342;27;20084;-59
2022/03/04 08:08:47;;;;;;;3.67;2.90;;;;;;;21.87;nan;98934.19;5123275;27;20035;-59
2022/03/04 08:11:13;;;;;;;3.92;2.83;;;;;;;21.88;nan;98922.66;5126988;27;20479;-59
2022/03/04 08:13:38;;;;;;;4.30;3.30;;;;;;;21.86;nan;98927.00;5131257;27;20050;-59
2022/03/04 08:16:04;;;;;;;4.32;2.72;;;;;;;21.89;nan;98935.38;5119503;28;20163;-60
2022/03/04 08:18:29;;;;;;;4.30;3.30;;;;;;;21.90;nan;98931.41;5125353;28;20503;-59
2022/03/04 08:20:55;;;;;;;3.33;2.60;;;;;;;21.91;nan;98930.19;5124543;28;20044;-59
2022/03/04 08:23:20;;;;;;;4.40;3.42;;;;;;;21.93;nan;98938.16;5126718;28;20441;-59
2022/03/04 08:25:46;;;;;;;3.97;2.88;;;;;;;21.91;nan;98930.19;5126540;27;20385;-59
2022/03/04 08:28:12;;;;;;;4.82;3.53;;;;;;;21.91;nan;98921.84;5129688;28;20051;-59
2022/03/04 08:30:37;;;;;;;4.43;3.30;;;;;;;21.94;nan;98931.41;5124120;28;20047;-60
2022/03/04 08:33:03;;;;;;;4.25;3.20;;;;;;;21.94;nan;98932.22;5130643;28;20054;-60
2022/03/04 08:35:28;;;;;;;4.22;3.45;;;;;;;21.93;nan;98921.44;5119918;28;20031;-58
2022/03/04 08:37:54;;;;;;;4.20;3.17;;;;;;;21.96;nan;98929.81;5104821;28;20100;-59
2022/03/04 08:40:20;;;;;;;4.20;3.00;;;;;;;21.95;nan;98922.66;5118426;28;20080;-60
2022/03/04 08:42:46;;;;;;;4.40;3.10;;;;;;;21.99;nan;98926.25;5120371;27;20045;-60
2022/03/04 08:45:13;;;;;;;4.80;3.20;;;;;;;21.97;nan;98933.41;5126515;28;20503;-60
2022/03/04 08:47:41;;;;;;;3.90;3.20;;;;;;;21.95;nan;98927.44;5120296;28;20036;-60
2022/03/04 08:50:07;;;;;;;5.28;3.75;;;;;;;21.96;nan;98927.03;5122422;27;20054;-59
2022/03/04 08:52:32;;;;;;;4.25;3.00;;;;;;;21.96;nan;98929.03;5122774;28;20066;-60
2022/03/04 08:54:58;;;;;;;8.07;3.55;;;;;;;21.98;nan;98927.44;5128593;28;20054;-59
2022/03/04 08:57:23;;;;;;;9.90;3.33;;;;;;;21.99;nan;98928.22;5126704;28;20046;-59
2022/03/04 08:59:49;;;;;;;7.90;3.65;;;;;;;22.01;nan;98925.88;5125298;28;20464;-60
2022/03/04 09:02:14;;;;;;;4.60;3.22;;;;;;;22.01;nan;98927.84;5121362;28;20075;-59
2022/03/04 09:04:40;;;;;;;7.38;3.40;;;;;;;21.98;nan;98921.88;5130837;28;20039;-60
2022/03/04 09:07:06;;;;;;;4.88;3.58;;;;;;;21.99;nan;98939.38;5122118;27;20449;-60
2022/03/04 09:09:33;;;;;;;6.45;3.08;;;;;;;22.01;nan;98928.66;5127408;27;20069;-60
2022/03/04 09:11:58;;;;;;;4.60;3.17;;;;;;;21.98;nan;98935.00;5130174;28;20104;-60
2022/03/04 09:14:24;;;;;;;4.22;3.30;;;;;;;21.99;nan;98931.81;5131187;28;20043;-60
2022/03/04 09:16:51;;;;;;;5.25;3.78;;;;;;;21.97;nan;98931.41;5121067;28;20112;-60
2022/03/04 09:19:16;;;;;;;6.45;3.60;;;;;;;21.97;nan;98934.19;5127137;28;20587;-60
2022/03/04 09:21:42;;;;;;;3.78;3.08;;;;;;;21.96;nan;98931.81;5127323;27;20047;-59
2022/03/04 09:24:07;;;;;;;4.88;3.05;;;;;;;21.96;nan;98931.81;5121609;27;20056;-59
2022/03/04 09:26:33;;;;;;;4.53;3.38;;;;;;;21.95;nan;98930.22;5117652;27;20039;-60
2022/03/04 09:28:59;;;;;;;4.15;3.30;;;;;;;21.95;nan;98928.25;5125834;28;20054;-60
2022/03/04 09:31:24;;;;;;;4.70;3.40;;;;;;;21.91;nan;98923.84;5129538;28;20567;-60
2022/03/04 09:33:49;;;;;;;4.50;3.10;;;;;;;21.92;nan;98928.22;5130791;28;20039;-60
2022/03/04 09:36:15;;;;;;;4.88;3.22;;;;;;;21.87;nan;98923.84;5123991;28;20380;-60
2022/03/04 09:38:42;;;;;;;4.00;3.10;;;;;;;21.91;nan;98924.63;5103631;28;20446;-60
2022/03/04 09:41:07;;;;;;;4.63;3.25;;;;;;;21.91;nan;98916.28;5107168;28;20459;-59
2022/03/04 09:43:33;;;;;;;4.75;3.30;;;;;;;21.90;nan;98922.25;5110310;28;20048;-60
2022/03/04 09:45:59;;;;;;;5.72;3.10;;;;;;;21.88;nan;98922.66;5105118;28;20061;-59
2022/03/04 09:48:24;;;;;;;4.68;3.40;;;;;;;21.85;nan;98912.28;5103573;28;20044;-59
2022/03/04 09:50:50;;;;;;;4.40;3.10;;;;;;;21.89;nan;98929.00;5100999;28;20454;-59
2022/03/04 09:53:16;;;;;;;4.75;3.60;;;;;;;21.87;nan;98912.72;5105293;28;20027;-60
2022/03/04 09:55:43;;;;;;;5.28;3.30;;;;;;;21.87;nan;98921.06;5102899;28;20051;-59
2022/03/04 09:58:13;;;;;;;4.65;3.20;;;;;;;21.88;nan;98910.72;5103730;28;20040;-59
2022/03/04 10:00:40;;;;;;;4.30;3.20;;;;;;;21.87;nan;98921.06;5103223;28;20039;-60
2022/03/04 10:03:10;;;;;;;6.85;3.33;;;;;;;21.86;nan;98919.47;5100369;28;20055;-59
2022/03/04 10:05:50;;;;;;;4.30;3.25;;;;;;;21.83;nan;98913.88;5100060;28;20093;-60
2022/03/04 10:08:19;;;;;;;4.32;3.30;;;;;;;21.82;nan;98906.72;5101047;28;20738;-60
2022/03/04 10:10:52;;;;;;;4.28;3.03;;;;;;;21.79;nan;98913.06;5099131;28;20089;-60
2022/03/04 10:13:17;;;;;;;4.53;3.33;;;;;;;21.76;nan;98911.88;5093140;28;20084;-60
2022/03/04 10:15:54;;;;;;;4.25;3.13;;;;;;;21.76;nan;98914.66;5099360;28;20048;-60
2022/03/04 10:18:27;;;;;;;4.68;3.55;;;;;;;21.78;nan;98908.69;5107487;28;20465;-60
2022/03/04 10:20:52;;;;;;;4.40;3.22;;;;;;;21.78;nan;98908.69;5097007;28;20036;-60
2022/03/04 10:23:23;;;;;;;3.92;3.10;;;;;;;21.80;nan;98904.34;5101370;28;20062;-60
2022/03/04 10:25:52;;;;;;;4.85;3.20;;;;;;;21.79;nan;98907.50;5106170;28;20047;-60
2022/03/04 10:28:19;;;;;;;4.47;3.42;;;;;;;21.76;nan;98909.09;5099211;28;20043;-60
2022/03/04 10:30:47;;;;;;;4.72;3.80;;;;;;;21.77;nan;98913.47;5100686;28;20464;-60
2022/03/04 10:33:16;;;;;;;5.28;3.42;;;;;;;21.76;nan;98909.09;5100297;28;20055;-60
2022/03/04 10:35:42;;;;;;;5.15;3.70;;;;;;;21.73;nan;98901.53;5098473;28;20703;-60
2022/03/04 10:38:18;;;;;;;4.38;3.33;;;;;;;21.73;nan;98898.75;5100042;28;20047;-60
2022/03/04 10:40:43;;;;;;;5.05;3.90;;;;;;;21.72;nan;98897.16;5103523;28;20092;-60
2022/03/04 10:43:11;;;;;;;5.65;3.60;;;;;;;21.73;nan;98900.75;5104838;28;20040;-60
2022/03/04 10:45:41;;;;;;;4.65;3.47;;;;;;;21.71;nan;98896.34;5098952;28;20052;-61
2022/03/04 10:48:11;;;;;;;4.60;3.50;;;;;;;21.70;nan;98889.19;5100931;28;20445;-60
2022/03/04 10:50:51;;;;;;;4.38;3.15;;;;;;;21.71;nan;98888.00;5103765;28;20409;-60
2022/03/04 10:53:24;;;;;;;4.55;2.70;;;;;;;22.17;nan;98883.75;5100063;28;20035;-60
2022/03/04 10:55:58;;;;;;;4.43;3.20;;;;;;;23.28;nan;98884.38;5102917;28;20040;-60
2022/03/04 10:58:31;;;;;;;4.13;3.00;;;;;;;24.15;nan;98878.78;5099089;28;20044;-59
2022/03/04 11:01:10;;;;;;;6.22;3.00;;;;;;;24.78;nan;98869.44;5102054;28;20047;-59
2022/03/04 11:03:37;;;;;;;4.03;2.70;;;;;;;25.21;nan;98869.81;5095871;28;20050;-60
2022/03/04 11:06:09;;;;;;;4.03;2.60;;;;;;;25.51;nan;98874.66;5097907;28;20048;-60
2022/03/04 11:08:36;;;;;;;3.75;2.83;;;;;;;25.81;nan;98864.69;5101162;28;20122;-60
2022/03/04 11:11:03;;;;;;;3.83;2.70;;;;;;;25.99;nan;98865.19;5094989;28;20303;-60
2022/03/04 11:13:35;;;;;;;4.13;2.70;;;;;;;26.19;nan;98860.47;5101641;28;20047;-60
2022/03/04 11:16:02;;;;;;;3.92;3.08;;;;;;;26.30;nan;98869.50;5107794;28;20040;-60
2022/03/04 11:18:28;;;;;;;5.30;2.65;;;;;;;26.39;nan;98865.38;5108536;28;20046;-60
2022/03/04 11:20:56;;;;;;;3.83;2.80;;;;;;;26.43;nan;98857.69;5108516;28;20040;-60
2022/03/04 11:23:30;;;;;;;4.90;2.65;;;;;;;26.49;nan;98853.19;5107281;28;20031;-60
2022/03/04 11:26:00;;;;;;;6.68;2.53;;;;;;;26.53;nan;98853.94;5090669;28;20050;-60
2022/03/04 11:28:36;;;;;;;3.90;2.70;;;;;;;26.60;nan;98853.81;5096386;28;20585;-61
2022/03/04 11:31:06;;;;;;;4.22;2.55;;;;;;;26.72;nan;98853.19;5108962;28;20108;-60
2022/03/04 11:33:36;;;;;;;3.55;2.42;;;;;;;26.79;nan;98852.25;5108200;28;20047;-60
2022/03/04 11:36:18;;;;;;;3.97;2.60;;;;;;;26.85;nan;98844.91;5107401;28;20069;-60
2022/03/04 11:38:46;;;;;;;3.83;2.60;;;;;;;26.89;nan;98840.84;5107784;28;20047;-60
2022/03/04 11:41:37;;;;;;;4.90;3.05;;;;;;;26.94;nan;98838.75;5105024;28;20415;-60
2022/03/04 11:44:19;;;;;;;4.55;2.67;;;;;;;27.01;nan;98838.63;5075400;28;20097;-60
2022/03/04 11:47:00;;;;;;;3.78;2.80;;;;;;;27.02;nan;98823.38;5109359;28;20556;-61
2022/03/04 11:49:44;;;;;;;3.83;2.83;;;;;;;27.05;nan;98831.72;5100682;28;20048;-61